Time;durP1;ratioP1;P1;durP2;ratioP2;P2;SDS_P1;SDS_P2;PMS_P1;PMS_P2;Temp;Humidity;BMP_temperature;BMP_pressure;BME280_temperature;BME280_humidity;BME280_pressure;Samples;Min_cycle;Max_cycle;Signal;HPM_P1;HPM_P2
2021/06/15 00:00:48;;;;;;;;;;;15.40;99.90;;;;;;6241930;22;20467;-79
2021/06/15 00:03:16;;;;;;;;;;;15.40;99.90;;;;;;6216956;23;19942;-80
2021/06/15 00:05:43;;;;;;;;;;;15.40;99.90;;;;;;6241268;22;19920;-79
2021/06/15 00:08:09;;;;;;;;;;;15.50;99.90;;;;;;6217060;22;19964;-80
2021/06/15 00:10:37;;;;;;;;;;;15.60;99.90;;;;;;6218109;22;19908;-79
2021/06/15 00:13:04;;;;;;;;;;;15.60;99.90;;;;;;6243039;22;19904;-80
2021/06/15 00:15:36;;;;;;;;;;;15.70;99.90;;;;;;6242629;22;19911;-80
2021/06/15 00:18:03;;;;;;;;;;;15.70;99.90;;;;;;6243177;22;19931;-80
2021/06/15 00:20:30;;;;;;;;;;;15.60;99.90;;;;;;6242448;22;19911;-81
2021/06/15 00:22:57;;;;;;;;;;;15.60;99.90;;;;;;6217061;22;19920;-80
2021/06/15 00:25:24;;;;;;;;;;;15.50;99.90;;;;;;6242798;22;19927;-80
2021/06/15 00:27:55;;;;;;;;;;;15.40;99.90;;;;;;6219157;22;19923;-80
2021/06/15 00:30:23;;;;;;;;;;;15.40;99.90;;;;;;6242934;22;19911;-79
2021/06/15 00:32:51;;;;;;;;;;;15.40;99.90;;;;;;6243034;22;19908;-80
2021/06/15 00:35:23;;;;;;;;;;;15.40;99.90;;;;;;6242817;22;19927;-80
2021/06/15 00:37:54;;;;;;;;;;;15.30;99.90;;;;;;6243091;22;19927;-79
2021/06/15 00:40:22;;;;;;;;;;;15.30;99.90;;;;;;6217543;22;19920;-80
2021/06/15 00:42:49;;;;;;;;;;;15.30;99.90;;;;;;6242686;22;19920;-79
2021/06/15 00:45:16;;;;;;;;;;;15.30;99.90;;;;;;6217293;22;19919;-80
2021/06/15 00:47:47;;;;;;;;;;;15.30;99.90;;;;;;6217596;23;19911;-81
2021/06/15 00:50:15;;;;;;;;;;;15.30;99.90;;;;;;6217856;22;19904;-80
2021/06/15 00:52:50;;;;;;;;;;;15.20;99.90;;;;;;6242655;22;19968;-81
2021/06/15 00:55:16;;;;;;;;;;;15.00;99.90;;;;;;6217070;23;20261;-80
2021/06/15 00:57:43;;;;;;;;;;;14.80;99.90;;;;;;6217427;22;19927;-79
2021/06/15 01:00:11;;;;;;;;;;;14.80;99.90;;;;;;6216826;22;19920;-80
2021/06/15 01:02:38;;;;;;;;;;;14.80;99.90;;;;;;6242267;22;19924;-79
2021/06/15 01:05:07;;;;;;;;;;;14.80;99.90;;;;;;6217549;22;19939;-80
2021/06/15 01:07:45;;;;;;;;;;;14.70;99.90;;;;;;6217358;22;19908;-79
2021/06/15 01:10:18;;;;;;;;;;;14.60;99.90;;;;;;6217446;23;19908;-79
2021/06/15 01:12:52;;;;;;;;;;;14.50;99.90;;;;;;6255040;22;19946;-80
2021/06/15 01:15:24;;;;;;;;;;;14.50;99.90;;;;;;6221282;23;19961;-80
2021/06/15 01:17:57;;;;;;;;;;;14.50;99.90;;;;;;6221743;23;19904;-81
2021/06/15 01:20:33;;;;;;;;;;;14.40;99.90;;;;;;6246030;23;19907;-81
2021/06/15 01:23:00;;;;;;;;;;;14.40;99.90;;;;;;6245424;22;19919;-80
2021/06/15 01:25:32;;;;;;;;;;;14.40;99.90;;;;;;6245374;23;19923;-80
2021/06/15 01:28:02;;;;;;;;;;;14.40;99.90;;;;;;6220553;23;19924;-81
2021/06/15 01:30:36;;;;;;;;;;;14.40;99.90;;;;;;6220972;23;19919;-80
2021/06/15 01:33:05;;;;;;;;;;;14.30;99.90;;;;;;6245600;22;19920;-81
2021/06/15 01:35:32;;;;;;;;;;;14.30;99.90;;;;;;6219858;23;19935;-80
2021/06/15 01:38:07;;;;;;;;;;;14.20;99.90;;;;;;6272028;22;19912;-80
2021/06/15 01:40:37;;;;;;;;;;;14.10;99.90;;;;;;6220661;23;19942;-80
2021/06/15 01:43:19;;;;;;;;;;;14.10;99.90;;;;;;6223268;22;19903;-80
2021/06/15 01:45:53;;;;;;;;;;;14.10;99.90;;;;;;6245678;23;19926;-80
2021/06/15 01:48:33;;;;;;;;;;;14.10;99.90;;;;;;6222349;23;19924;-80
2021/06/15 01:51:03;;;;;;;;;;;14.10;99.90;;;;;;6220452;23;19920;-80
2021/06/15 01:53:33;;;;;;;;;;;14.10;99.90;;;;;;6271044;22;19924;-79
2021/06/15 01:56:02;;;;;;;;;;;14.00;99.90;;;;;;6220542;23;19907;-80
2021/06/15 01:58:36;;;;;;;;;;;14.00;99.90;;;;;;6245893;23;19934;-80
2021/06/15 02:01:09;;;;;;;;;;;13.90;99.90;;;;;;6247024;23;19919;-80
2021/06/15 02:03:42;;;;;;;;;;;14.00;99.90;;;;;;6220658;23;19919;-81
2021/06/15 02:06:19;;;;;;;;;;;13.90;99.90;;;;;;6220687;23;19967;-79
2021/06/15 02:08:48;;;;;;;;;;;13.90;99.90;;;;;;6220094;23;19927;-81
2021/06/15 02:11:33;;;;;;;;;;;13.90;99.90;;;;;;6271215;23;19930;-80
2021/06/15 02:14:18;;;;;;;;;;;13.80;99.90;;;;;;6222666;23;19923;-80
2021/06/15 02:17:05;;;;;;;;;;;13.80;99.90;;;;;;6246467;23;19930;-80
2021/06/15 02:19:52;;;;;;;;;;;13.80;99.90;;;;;;6187772;23;19963;-81
2021/06/15 02:22:25;;;;;;;;;;;13.70;99.90;;;;;;6219893;23;19967;-81
2021/06/15 02:24:54;;;;;;;;;;;13.70;99.90;;;;;;6243188;23;19911;-80
2021/06/15 02:27:23;;;;;;;;;;;13.60;99.90;;;;;;6217974;23;19930;-81
2021/06/15 02:29:52;;;;;;;;;;;13.60;99.90;;;;;;6243336;23;19930;-81
2021/06/15 02:32:24;;;;;;;;;;;13.60;99.90;;;;;;6217767;23;19935;-80
2021/06/15 02:34:58;;;;;;;;;;;13.60;99.90;;;;;;6219872;23;19923;-80
2021/06/15 02:37:33;;;;;;;;;;;13.50;99.90;;;;;;6217047;23;19967;-81
2021/06/15 02:40:06;;;;;;;;;;;13.50;99.90;;;;;;6218066;23;20002;-80
2021/06/15 02:42:42;;;;;;;;;;;13.40;99.90;;;;;;6218864;23;19920;-80
2021/06/15 02:45:12;;;;;;;;;;;13.40;99.90;;;;;;6243107;23;19920;-81
2021/06/15 02:47:47;;;;;;;;;;;13.40;99.90;;;;;;6242375;23;19942;-80
2021/06/15 02:50:21;;;;;;;;;;;13.50;99.90;;;;;;6218159;23;19930;-80
2021/06/15 02:53:02;;;;;;;;;;;13.50;99.90;;;;;;6218002;22;19919;-81
2021/06/15 02:55:39;;;;;;;;;;;13.40;99.90;;;;;;6242166;23;19919;-81
2021/06/15 02:58:06;;;;;;;;;;;13.40;99.90;;;;;;6268493;23;19919;-81
2021/06/15 03:00:33;;;;;;;;;;;13.40;99.90;;;;;;6217870;23;19950;-81
2021/06/15 03:03:00;;;;;;;;;;;13.30;99.90;;;;;;6243074;22;19919;-81
2021/06/15 03:05:31;;;;;;;;;;;13.30;99.90;;;;;;6220956;23;19920;-80
2021/06/15 03:07:59;;;;;;;;;;;13.30;99.90;;;;;;6270709;23;19942;-81
2021/06/15 03:10:26;;;;;;;;;;;13.20;99.90;;;;;;6219991;23;19939;-80
2021/06/15 03:13:20;;;;;;;;;;;13.30;99.90;;;;;;6215463;23;19920;-81
2021/06/15 03:15:49;;;;;;;;;;;13.20;99.90;;;;;;6213592;23;20326;-81
2021/06/15 03:18:31;;;;;;;;;;;13.20;99.90;;;;;;6238659;23;19924;-80
2021/06/15 03:21:12;;;;;;;;;;;13.10;99.90;;;;;;6238393;23;19920;-80
2021/06/15 03:23:42;;;;;;;;;;;13.10;99.90;;;;;;6237951;23;19919;-80
2021/06/15 03:26:18;;;;;;;;;;;13.10;99.90;;;;;;6238043;23;19904;-81
2021/06/15 03:28:53;;;;;;;;;;;13.10;99.90;;;;;;6237327;23;19919;-81
2021/06/15 03:31:22;;;;;;;;;;;13.00;99.90;;;;;;6212066;23;19939;-79
2021/06/15 03:33:56;;;;;;;;;;;12.90;99.90;;;;;;6237905;23;20345;-81
2021/06/15 03:36:29;;;;;;;;;;;12.90;99.90;;;;;;6235986;23;19934;-80
2021/06/15 03:39:02;;;;;;;;;;;12.90;99.90;;;;;;6236513;23;19947;-80
2021/06/15 03:41:30;;;;;;;;;;;12.90;99.90;;;;;;6210817;23;19920;-79
2021/06/15 03:43:58;;;;;;;;;;;13.00;99.90;;;;;;6210868;23;19927;-80
2021/06/15 03:46:26;;;;;;;;;;;13.00;99.90;;;;;;6210814;23;19943;-81
2021/06/15 03:48:58;;;;;;;;;;;13.00;99.90;;;;;;6235646;23;19931;-80
2021/06/15 03:51:31;;;;;;;;;;;13.00;99.90;;;;;;6210777;23;19920;-81
2021/06/15 03:54:06;;;;;;;;;;;13.00;99.90;;;;;;6209061;23;19972;-80
2021/06/15 03:56:38;;;;;;;;;;;13.00;99.90;;;;;;6209124;23;19939;-80
2021/06/15 03:59:07;;;;;;;;;;;13.10;99.90;;;;;;6203414;23;19943;-81
2021/06/15 04:01:39;;;;;;;;;;;13.10;99.90;;;;;;6208989;23;19927;-81
2021/06/15 04:04:07;;;;;;;;;;;13.00;99.90;;;;;;6235180;22;19904;-80
2021/06/15 04:06:35;;;;;;;;;;;13.00;99.90;;;;;;6216409;23;19943;-81
2021/06/15 04:09:04;;;;;;;;;;;13.00;99.90;;;;;;6240609;22;19908;-80
2021/06/15 04:11:33;;;;;;;;;;;13.00;99.90;;;;;;6214408;23;19920;-81
2021/06/15 04:14:00;;;;;;;;;;;13.00;99.90;;;;;;6236906;23;19916;-79
2021/06/15 04:16:27;;;;;;;;;;;13.00;99.90;;;;;;6236482;22;19924;-81
2021/06/15 04:19:00;;;;;;;;;;;12.90;99.90;;;;;;6210084;23;19920;-80
2021/06/15 04:21:31;;;;;;;;;;;12.90;99.90;;;;;;6216054;23;19930;-79
2021/06/15 04:24:02;;;;;;;;;;;13.00;99.90;;;;;;6194322;23;20307;-81
2021/06/15 04:26:34;;;;;;;;;;;13.00;99.90;;;;;;6194600;23;19930;-80
2021/06/15 04:29:07;;;;;;;;;;;13.10;99.90;;;;;;6217725;23;19927;-81
2021/06/15 04:31:39;;;;;;;;;;;13.10;99.90;;;;;;6187622;23;19995;-80
2021/06/15 04:34:14;;;;;;;;;;;13.20;99.90;;;;;;6214256;23;20349;-80
2021/06/15 04:36:43;;;;;;;;;;;13.30;99.90;;;;;;6187185;23;20315;-80
2021/06/15 04:39:15;;;;;;;;;;;13.20;99.90;;;;;;6189715;23;19958;-80
2021/06/15 04:41:48;;;;;;;;;;;13.30;99.90;;;;;;6188373;23;19920;-80
2021/06/15 04:44:20;;;;;;;;;;;13.30;99.90;;;;;;6188440;23;19924;-80
2021/06/15 04:46:50;;;;;;;;;;;13.40;99.90;;;;;;6213217;23;19978;-80
2021/06/15 04:49:29;;;;;;;;;;;13.50;99.90;;;;;;6189977;23;19926;-81
2021/06/15 04:51:58;;;;;;;;;;;13.50;99.90;;;;;;6188799;23;19986;-79
2021/06/15 04:54:50;;;;;;;;;;;13.50;99.90;;;;;;6214718;23;20304;-80
2021/06/15 04:57:21;;;;;;;;;;;13.50;99.90;;;;;;6219815;23;19927;-80
2021/06/15 04:59:51;;;;;;;;;;;13.60;99.90;;;;;;6189620;23;19920;-80
2021/06/15 05:02:20;;;;;;;;;;;13.60;99.90;;;;;;6189220;23;20341;-80
2021/06/15 05:04:49;;;;;;;;;;;13.70;99.90;;;;;;6187590;23;19920;-80
2021/06/15 05:07:22;;;;;;;;;;;13.70;99.90;;;;;;6214133;23;19967;-80
2021/06/15 05:09:52;;;;;;;;;;;13.70;99.90;;;;;;6189141;23;19927;-80
2021/06/15 05:12:20;;;;;;;;;;;13.80;99.90;;;;;;6188580;23;20655;-80
2021/06/15 05:14:52;;;;;;;;;;;13.80;99.90;;;;;;6215149;23;19920;-81
2021/06/15 05:17:20;;;;;;;;;;;13.90;99.90;;;;;;6215830;23;20003;-81
2021/06/15 05:19:48;;;;;;;;;;;13.90;99.90;;;;;;6189777;23;19966;-81
2021/06/15 05:22:25;;;;;;;;;;;14.00;99.90;;;;;;6214559;23;20300;-81
2021/06/15 05:24:54;;;;;;;;;;;14.00;99.90;;;;;;6189590;23;19986;-81
2021/06/15 05:27:23;;;;;;;;;;;14.10;99.90;;;;;;6188554;23;19951;-81
2021/06/15 05:29:50;;;;;;;;;;;14.20;99.90;;;;;;6189341;23;19919;-81
2021/06/15 05:32:18;;;;;;;;;;;14.20;99.90;;;;;;6190206;23;19927;-81
2021/06/15 05:34:50;;;;;;;;;;;14.20;99.90;;;;;;6214814;23;19967;-81
2021/06/15 05:37:19;;;;;;;;;;;14.30;99.90;;;;;;6215360;23;19924;-81
2021/06/15 05:39:46;;;;;;;;;;;14.40;99.90;;;;;;6215640;23;19920;-81
2021/06/15 05:42:13;;;;;;;;;;;14.40;99.90;;;;;;6191437;23;20400;-81
2021/06/15 05:44:41;;;;;;;;;;;14.40;99.90;;;;;;6190286;23;19928;-81
2021/06/15 05:47:10;;;;;;;;;;;14.50;99.90;;;;;;6189151;23;19920;-81
2021/06/15 05:49:37;;;;;;;;;;;14.60;99.90;;;;;;6190396;23;19946;-81
2021/06/15 05:52:08;;;;;;;;;;;14.60;99.90;;;;;;6189642;23;19930;-81
2021/06/15 05:54:36;;;;;;;;;;;14.70;99.90;;;;;;6214374;23;19959;-81
2021/06/15 05:57:05;;;;;;;;;;;14.70;99.90;;;;;;6213573;23;19920;-81
2021/06/15 05:59:33;;;;;;;;;;;14.80;99.90;;;;;;6193450;23;19991;-81
2021/06/15 06:02:01;;;;;;;;;;;14.80;99.90;;;;;;6194580;23;19951;-82
2021/06/15 06:04:33;;;;;;;;;;;14.90;99.90;;;;;;6193158;23;19999;-81
2021/06/15 06:09:46;;;;;;;;;;;15.10;99.90;;;;;;6215333;23;19920;-79
2021/06/15 06:12:13;;;;;;;;;;;15.20;99.90;;;;;;6189760;23;19988;-81
2021/06/15 06:14:41;;;;;;;;;;;15.20;99.90;;;;;;6190485;23;19926;-81
2021/06/15 06:17:13;;;;;;;;;;;15.30;99.90;;;;;;6191336;23;20003;-81
2021/06/15 06:19:41;;;;;;;;;;;15.40;99.90;;;;;;6190984;23;19928;-81
2021/06/15 06:22:14;;;;;;;;;;;15.50;99.90;;;;;;6215614;23;20264;-80
2021/06/15 06:24:41;;;;;;;;;;;15.50;99.90;;;;;;6216193;23;19920;-81
2021/06/15 06:27:08;;;;;;;;;;;15.60;99.90;;;;;;6191260;23;19920;-80
2021/06/15 06:29:36;;;;;;;;;;;15.70;99.90;;;;;;6214946;23;19991;-79
2021/06/15 06:32:04;;;;;;;;;;;15.70;99.90;;;;;;6190623;23;19944;-81
2021/06/15 06:34:31;;;;;;;;;;;15.80;99.90;;;;;;6191299;23;20002;-81
2021/06/15 06:36:59;;;;;;;;;;;15.90;99.90;;;;;;6190415;23;19920;-81
2021/06/15 06:39:26;;;;;;;;;;;16.00;99.90;;;;;;6193624;23;19920;-79
2021/06/15 06:41:54;;;;;;;;;;;16.00;99.90;;;;;;6193457;23;19920;-81
2021/06/15 06:44:21;;;;;;;;;;;16.10;99.90;;;;;;6193317;23;19927;-81
2021/06/15 06:46:54;;;;;;;;;;;16.20;99.90;;;;;;6195207;23;20281;-81
2021/06/15 06:49:21;;;;;;;;;;;16.30;99.90;;;;;;6193470;23;19920;-81
2021/06/15 06:51:49;;;;;;;;;;;16.40;99.90;;;;;;6193853;23;19919;-79
2021/06/15 06:54:17;;;;;;;;;;;16.50;99.90;;;;;;6191623;23;20271;-82
2021/06/15 06:56:44;;;;;;;;;;;16.60;99.90;;;;;;6192630;23;19920;-81
2021/06/15 06:59:11;;;;;;;;;;;16.70;99.90;;;;;;6222091;23;19926;-81
2021/06/15 07:01:39;;;;;;;;;;;16.70;99.90;;;;;;6196609;23;19927;-81
2021/06/15 07:04:06;;;;;;;;;;;16.80;99.90;;;;;;6196777;23;20333;-81
2021/06/15 07:06:33;;;;;;;;;;;16.90;99.90;;;;;;6196967;23;19931;-81
2021/06/15 07:09:00;;;;;;;;;;;17.00;99.90;;;;;;6196459;23;19975;-81
2021/06/15 07:11:32;;;;;;;;;;;17.10;99.90;;;;;;6222233;23;19920;-80
2021/06/15 07:13:59;;;;;;;;;;;17.20;99.90;;;;;;6197328;23;19927;-81
2021/06/15 07:16:26;;;;;;;;;;;17.40;99.90;;;;;;6197212;23;19920;-81
2021/06/15 07:18:53;;;;;;;;;;;17.40;99.90;;;;;;6198141;23;19943;-81
2021/06/15 07:21:20;;;;;;;;;;;17.60;99.90;;;;;;6205871;23;19927;-81
2021/06/15 07:23:48;;;;;;;;;;;17.70;99.90;;;;;;6197289;23;20379;-81
2021/06/15 07:26:15;;;;;;;;;;;17.90;99.90;;;;;;6197612;23;20436;-81
2021/06/15 07:28:42;;;;;;;;;;;18.00;99.90;;;;;;6197931;23;19990;-81
2021/06/15 07:31:09;;;;;;;;;;;18.10;99.90;;;;;;6197674;23;19920;-78
2021/06/15 07:33:38;;;;;;;;;;;18.20;99.90;;;;;;6197714;23;19919;-80
2021/06/15 07:36:09;;;;;;;;;;;18.30;99.90;;;;;;6198669;23;19999;-79
2021/06/15 07:38:37;;;;;;;;;;;18.40;99.90;;;;;;6202386;23;19920;-79
2021/06/15 07:41:04;;;;;;;;;;;18.50;99.90;;;;;;6197101;23;19935;-81
2021/06/15 07:43:37;;;;;;;;;;;18.60;99.90;;;;;;6211990;23;19936;-79
2021/06/15 07:47:20;;;;;;;;;;;18.70;99.90;;;;;;6220490;23;19939;-81
2021/06/15 07:50:28;;;;;;;;;;;18.90;99.90;;;;;;6255399;23;19943;-79
2021/06/15 07:54:24;;;;;;;;;;;19.20;99.90;;;;;;6237063;23;19944;-79
2021/06/15 07:57:47;;;;;;;;;;;19.30;99.90;;;;;;6258875;23;19955;-78
2021/06/15 08:01:20;;;;;;;;;;;19.60;99.90;;;;;;6211077;23;19975;-79
2021/06/15 08:04:44;;;;;;;;;;;19.70;99.90;;;;;;6235944;23;19914;-79
2021/06/15 08:08:25;;;;;;;;;;;19.90;99.90;;;;;;6237024;23;19943;-81
2021/06/15 08:11:51;;;;;;;;;;;20.10;99.90;;;;;;6188157;23;19928;-80
2021/06/15 08:15:49;;;;;;;;;;;20.30;99.90;;;;;;6102881;23;19927;-80
2021/06/15 08:23:31;;;;;;;;;;;20.70;99.90;;;;;;6119102;23;19948;-79
2021/06/15 08:27:36;;;;;;;;;;;20.90;99.90;;;;;;6112513;23;19945;-80
2021/06/15 08:34:08;;;;;;;;;;;21.30;99.90;;;;;;6117747;23;20046;-81
2021/06/15 08:36:51;;;;;;;;;;;21.50;99.10;;;;;;6049907;23;19928;-81
2021/06/15 08:39:47;;;;;;;;;;;21.60;97.30;;;;;;6067863;23;19913;-81
2021/06/15 08:43:04;;;;;;;;;;;21.80;93.90;;;;;;6096759;23;19921;-81
2021/06/15 08:54:47;;;;;;;;;;;22.40;90.70;;;;;;6110897;23;19920;-81
2021/06/15 08:58:51;;;;;;;;;;;22.60;89.70;;;;;;6147330;23;19977;-81
2021/06/15 09:02:17;;;;;;;;;;;22.70;86.40;;;;;;6146169;23;19941;-81
2021/06/15 09:05:41;;;;;;;;;;;22.90;85.70;;;;;;6115070;23;19928;-81
2021/06/15 09:36:58;;;;;;;;;;;24.10;63.60;;;;;;5949951;24;19938;-81
2021/06/15 10:00:19;;;;;;;;;;;24.90;59.40;;;;;;6236472;23;19939;-80
2021/06/15 13:24:45;;;;;;;;;;;30.30;42.90;;;;;;6227576;23;20411;-85
2021/06/15 13:27:18;;;;;;;;;;;30.20;45.20;;;;;;6176030;23;19927;-82
2021/06/15 13:29:45;;;;;;;;;;;30.30;45.00;;;;;;6200306;23;19943;-83
2021/06/15 13:32:16;;;;;;;;;;;30.30;43.80;;;;;;6200044;23;19919;-85
2021/06/15 13:35:04;;;;;;;;;;;30.40;46.50;;;;;;6174777;23;19920;-85
2021/06/15 13:37:37;;;;;;;;;;;30.60;46.20;;;;;;6175013;23;19926;-84
2021/06/15 13:40:06;;;;;;;;;;;30.90;42.60;;;;;;6198531;23;19927;-85
2021/06/15 13:42:33;;;;;;;;;;;30.90;43.80;;;;;;6198642;23;20265;-83
2021/06/15 13:45:12;;;;;;;;;;;31.10;43.40;;;;;;6174715;23;19920;-85
2021/06/15 13:47:41;;;;;;;;;;;31.10;43.00;;;;;;6173883;23;19920;-85
2021/06/15 13:50:09;;;;;;;;;;;31.30;45.30;;;;;;6175393;23;19924;-85
2021/06/15 13:52:36;;;;;;;;;;;31.50;42.50;;;;;;6175786;23;19927;-85
2021/06/15 13:55:04;;;;;;;;;;;31.50;40.30;;;;;;6200124;23;19920;-84
2021/06/15 13:57:36;;;;;;;;;;;31.40;42.10;;;;;;6175553;23;19943;-84
2021/06/15 14:00:08;;;;;;;;;;;31.30;41.50;;;;;;6175533;23;19920;-84
2021/06/15 14:02:37;;;;;;;;;;;31.20;40.50;;;;;;6196088;23;19920;-84
2021/06/15 14:05:05;;;;;;;;;;;31.20;40.70;;;;;;6197557;23;19919;-84
2021/06/15 14:07:31;;;;;;;;;;;31.00;40.40;;;;;;6195991;23;19974;-84
2021/06/15 14:09:58;;;;;;;;;;;31.10;42.00;;;;;;6198712;23;19947;-82
2021/06/15 14:12:25;;;;;;;;;;;31.20;41.50;;;;;;6199595;23;19920;-84
2021/06/15 14:15:03;;;;;;;;;;;31.40;41.90;;;;;;6200621;23;19920;-84
2021/06/15 14:17:30;;;;;;;;;;;31.60;40.40;;;;;;6198427;23;19965;-84
2021/06/15 14:19:57;;;;;;;;;;;31.60;40.50;;;;;;6198524;23;19924;-83
2021/06/15 14:22:25;;;;;;;;;;;31.60;40.70;;;;;;6165783;23;19924;-84
2021/06/15 14:24:56;;;;;;;;;;;31.70;40.80;;;;;;6199234;23;19924;-84
2021/06/15 14:27:23;;;;;;;;;;;31.90;41.00;;;;;;6198014;23;19924;-85
2021/06/15 14:29:55;;;;;;;;;;;32.30;41.50;;;;;;6199442;23;19931;-84
2021/06/15 14:32:23;;;;;;;;;;;32.40;40.00;;;;;;6174074;23;19920;-84
2021/06/15 14:34:51;;;;;;;;;;;32.60;39.80;;;;;;6200272;23;19930;-83
2021/06/15 14:37:18;;;;;;;;;;;32.50;38.70;;;;;;6174086;23;19920;-84
2021/06/15 14:39:44;;;;;;;;;;;32.60;39.90;;;;;;6175051;23;19944;-85
2021/06/15 14:42:12;;;;;;;;;;;32.30;38.70;;;;;;6198354;23;19920;-82
2021/06/15 14:44:39;;;;;;;;;;;32.50;40.40;;;;;;6199486;23;19923;-82
2021/06/15 14:47:05;;;;;;;;;;;32.50;36.70;;;;;;6174281;23;20308;-82
2021/06/15 14:49:32;;;;;;;;;;;32.80;36.50;;;;;;6168524;23;19927;-82
2021/06/15 14:52:04;;;;;;;;;;;32.80;36.10;;;;;;6197492;23;19926;-81
2021/06/15 14:54:36;;;;;;;;;;;32.90;33.40;;;;;;6173424;23;19920;-82
2021/06/15 14:57:04;;;;;;;;;;;33.20;33.90;;;;;;6172631;23;19968;-82
2021/06/15 14:59:30;;;;;;;;;;;33.60;34.20;;;;;;6175682;23;19975;-82
2021/06/15 15:01:57;;;;;;;;;;;34.00;37.90;;;;;;6202175;23;19923;-82
2021/06/15 15:04:24;;;;;;;;;;;34.20;35.10;;;;;;6201171;23;19920;-84
2021/06/15 15:06:50;;;;;;;;;;;34.50;35.90;;;;;;6199537;23;19924;-84
2021/06/15 15:09:17;;;;;;;;;;;34.50;32.90;;;;;;6199827;23;19923;-83
2021/06/15 15:11:44;;;;;;;;;;;34.60;32.90;;;;;;6171599;23;19927;-84
2021/06/15 15:14:10;;;;;;;;;;;34.40;34.70;;;;;;6200094;23;20416;-86
2021/06/15 15:16:38;;;;;;;;;;;34.50;35.20;;;;;;6198644;23;19927;-86
2021/06/15 15:19:05;;;;;;;;;;;34.60;35.50;;;;;;6175309;23;19920;-85
2021/06/15 15:21:32;;;;;;;;;;;34.60;35.30;;;;;;6200359;23;19920;-86
2021/06/15 15:24:02;;;;;;;;;;;34.60;35.10;;;;;;6175132;23;20401;-82
2021/06/15 15:26:34;;;;;;;;;;;34.60;35.80;;;;;;6171891;23;19950;-85
2021/06/15 15:29:02;;;;;;;;;;;34.20;34.70;;;;;;6143306;23;19991;-85
2021/06/15 15:31:30;;;;;;;;;;;34.10;36.50;;;;;;6167436;23;19925;-85
2021/06/15 15:33:58;;;;;;;;;;;34.00;34.90;;;;;;6142841;23;20310;-86
2021/06/15 15:36:25;;;;;;;;;;;34.10;35.30;;;;;;6166498;23;20576;-86
2021/06/15 15:38:53;;;;;;;;;;;33.90;35.60;;;;;;6141541;23;20353;-84
2021/06/15 15:41:20;;;;;;;;;;;33.90;35.00;;;;;;6142321;23;20273;-85
2021/06/15 15:43:48;;;;;;;;;;;33.80;35.60;;;;;;6141555;23;19940;-86
2021/06/15 15:46:20;;;;;;;;;;;33.70;36.20;;;;;;6143854;23;19952;-86
2021/06/15 15:48:47;;;;;;;;;;;33.50;36.40;;;;;;6144006;23;19948;-82
2021/06/15 15:51:14;;;;;;;;;;;33.60;36.60;;;;;;6168555;23;20256;-86
2021/06/15 15:53:46;;;;;;;;;;;33.80;36.80;;;;;;6167791;23;19947;-86
2021/06/15 15:56:12;;;;;;;;;;;34.10;36.80;;;;;;6143447;23;19976;-85
2021/06/15 15:58:44;;;;;;;;;;;34.50;36.10;;;;;;6143835;23;20318;-86
2021/06/15 16:01:16;;;;;;;;;;;34.90;35.40;;;;;;6144064;23;19952;-86
2021/06/15 16:03:43;;;;;;;;;;;35.20;35.00;;;;;;6166330;23;19943;-86
2021/06/15 16:06:10;;;;;;;;;;;34.80;33.70;;;;;;6141790;23;19931;-85
2021/06/15 16:08:36;;;;;;;;;;;34.90;34.20;;;;;;6193300;23;19920;-85
2021/06/15 16:11:09;;;;;;;;;;;35.30;32.80;;;;;;6167596;23;19921;-86
2021/06/15 16:13:36;;;;;;;;;;;35.70;32.50;;;;;;6167930;23;19975;-85
2021/06/15 16:16:03;;;;;;;;;;;35.90;32.40;;;;;;6142477;23;21323;-85
2021/06/15 16:18:30;;;;;;;;;;;36.20;32.70;;;;;;6144285;23;19920;-85
2021/06/15 16:20:57;;;;;;;;;;;36.10;32.70;;;;;;6196245;23;19924;-85
2021/06/15 16:23:24;;;;;;;;;;;36.00;33.80;;;;;;6168285;23;19936;-85
2021/06/15 16:25:55;;;;;;;;;;;35.50;34.70;;;;;;6168325;23;19920;-83
2021/06/15 16:28:22;;;;;;;;;;;35.10;35.70;;;;;;6164665;23;19990;-84
2021/06/15 16:30:49;;;;;;;;;;;35.00;36.40;;;;;;6170124;23;19924;-83
2021/06/15 16:33:21;;;;;;;;;;;35.10;37.00;;;;;;6171384;23;19926;-83
2021/06/15 16:35:48;;;;;;;;;;;35.10;35.70;;;;;;6194851;23;20334;-83
2021/06/15 16:38:15;;;;;;;;;;;35.00;35.90;;;;;;6194391;23;19927;-85
2021/06/15 16:40:41;;;;;;;;;;;35.20;35.90;;;;;;6170250;23;19920;-84
2021/06/15 16:43:09;;;;;;;;;;;35.20;35.70;;;;;;6195494;23;19976;-84
2021/06/15 16:45:36;;;;;;;;;;;35.20;35.50;;;;;;6195268;23;20489;-84
2021/06/15 16:48:03;;;;;;;;;;;35.10;34.90;;;;;;6194080;23;20382;-81
2021/06/15 16:50:30;;;;;;;;;;;35.10;35.20;;;;;;6195364;23;19953;-84
2021/06/15 16:52:57;;;;;;;;;;;35.30;36.60;;;;;;6171805;23;19920;-83
2021/06/15 16:55:25;;;;;;;;;;;35.70;35.40;;;;;;6170438;23;19920;-85
2021/06/15 16:57:52;;;;;;;;;;;36.10;33.60;;;;;;6196005;23;20297;-84
2021/06/15 17:00:20;;;;;;;;;;;36.40;33.10;;;;;;6199733;23;19924;-83
2021/06/15 17:02:48;;;;;;;;;;;36.50;34.00;;;;;;6173295;23;20293;-82
2021/06/15 17:05:15;;;;;;;;;;;36.30;33.70;;;;;;6172792;23;19924;-84
2021/06/15 17:07:43;;;;;;;;;;;36.30;32.90;;;;;;6170300;23;19935;-84
2021/06/15 17:10:12;;;;;;;;;;;36.40;32.90;;;;;;6171858;23;19951;-84
2021/06/15 17:12:42;;;;;;;;;;;36.60;33.20;;;;;;6196410;23;19948;-83
2021/06/15 17:15:13;;;;;;;;;;;36.60;34.60;;;;;;6196794;23;19927;-84
2021/06/15 17:17:40;;;;;;;;;;;36.60;34.00;;;;;;6171960;23;19972;-82
2021/06/15 17:20:07;;;;;;;;;;;36.70;35.10;;;;;;6197957;23;19920;-83
2021/06/15 17:22:35;;;;;;;;;;;36.80;34.10;;;;;;6196493;23;20301;-83
2021/06/15 17:25:05;;;;;;;;;;;36.60;33.20;;;;;;6170874;23;19924;-84
2021/06/15 17:27:44;;;;;;;;;;;36.10;33.50;;;;;;6193236;23;19936;-84
2021/06/15 17:30:13;;;;;;;;;;;36.00;34.60;;;;;;6171318;23;19924;-82
2021/06/15 17:32:40;;;;;;;;;;;35.60;34.90;;;;;;6170787;23;19924;-84
2021/06/15 17:35:07;;;;;;;;;;;35.50;35.70;;;;;;6170910;23;19920;-85
2021/06/15 17:37:35;;;;;;;;;;;35.30;36.30;;;;;;6171551;23;19908;-84
2021/06/15 17:40:03;;;;;;;;;;;35.10;37.10;;;;;;6197277;23;19927;-84
2021/06/15 17:42:30;;;;;;;;;;;34.90;38.50;;;;;;6172525;23;19931;-84
2021/06/15 17:44:57;;;;;;;;;;;34.60;37.90;;;;;;6197686;23;19927;-84
2021/06/15 17:47:24;;;;;;;;;;;34.20;37.70;;;;;;6168485;23;19924;-84
2021/06/15 17:49:51;;;;;;;;;;;33.90;38.40;;;;;;6195707;23;19943;-85
2021/06/15 17:52:18;;;;;;;;;;;33.80;38.60;;;;;;6170970;23;19943;-84
2021/06/15 17:54:50;;;;;;;;;;;33.60;39.40;;;;;;6174166;23;19924;-84
2021/06/15 17:57:17;;;;;;;;;;;33.30;40.50;;;;;;6173461;23;19927;-83
2021/06/15 17:59:44;;;;;;;;;;;33.00;44.50;;;;;;6173210;23;19920;-84
2021/06/15 18:02:11;;;;;;;;;;;32.50;46.00;;;;;;6197489;23;19920;-83
2021/06/15 18:04:46;;;;;;;;;;;32.30;47.10;;;;;;6167159;23;19920;-85
2021/06/15 18:07:15;;;;;;;;;;;32.00;46.90;;;;;;6192454;23;19979;-83
2021/06/15 18:09:44;;;;;;;;;;;31.60;48.50;;;;;;6218530;23;19928;-85
2021/06/15 18:12:11;;;;;;;;;;;30.80;49.80;;;;;;6167523;23;19974;-85
2021/06/15 18:14:39;;;;;;;;;;;30.20;51.90;;;;;;6166710;23;19921;-81
2021/06/15 18:17:05;;;;;;;;;;;29.60;52.90;;;;;;6163120;23;19951;-84
2021/06/15 18:19:33;;;;;;;;;;;29.10;53.50;;;;;;6187324;23;19921;-85
2021/06/15 18:22:00;;;;;;;;;;;28.70;54.50;;;;;;6163114;23;20231;-84
2021/06/15 18:24:27;;;;;;;;;;;28.30;55.20;;;;;;6155918;23;19956;-85
2021/06/15 18:26:53;;;;;;;;;;;28.00;56.00;;;;;;6162232;23;19947;-84
2021/06/15 18:29:20;;;;;;;;;;;27.70;56.70;;;;;;6163024;23;19931;-85
2021/06/15 18:31:52;;;;;;;;;;;27.40;57.40;;;;;;6165034;23;19920;-84
2021/06/15 18:34:18;;;;;;;;;;;27.00;57.90;;;;;;6165199;23;19989;-84
2021/06/15 18:36:45;;;;;;;;;;;26.70;58.60;;;;;;6191473;23;19920;-85
2021/06/15 18:39:12;;;;;;;;;;;26.50;59.50;;;;;;6192942;23;19921;-84
2021/06/15 18:41:39;;;;;;;;;;;26.40;59.90;;;;;;6169025;23;19968;-84
2021/06/15 18:44:06;;;;;;;;;;;26.20;60.50;;;;;;6169132;23;19928;-84
2021/06/15 18:46:33;;;;;;;;;;;26.00;60.50;;;;;;6170435;23;19987;-83
2021/06/15 18:49:01;;;;;;;;;;;25.70;60.90;;;;;;6197015;23;19928;-84
2021/06/15 18:51:31;;;;;;;;;;;25.50;61.80;;;;;;6173277;23;19920;-84
2021/06/15 18:54:06;;;;;;;;;;;25.30;62.60;;;;;;6188105;23;20002;-83
2021/06/15 18:56:33;;;;;;;;;;;25.20;62.40;;;;;;6161942;23;19960;-83
2021/06/15 19:06:47;;;;;;;;;;;24.60;64.10;;;;;;6270427;22;19958;-80
2021/06/15 19:09:16;;;;;;;;;;;24.40;65.10;;;;;;6243744;23;19942;-81
2021/06/15 19:11:46;;;;;;;;;;;24.20;65.60;;;;;;6244560;23;19994;-81
2021/06/15 19:17:30;;;;;;;;;;;23.80;66.70;;;;;;6182159;23;19921;-82
2021/06/15 19:20:03;;;;;;;;;;;23.60;67.70;;;;;;6206368;23;19920;-82
2021/06/15 19:22:37;;;;;;;;;;;23.50;68.10;;;;;;6205310;23;20003;-82
2021/06/15 19:25:10;;;;;;;;;;;23.40;67.80;;;;;;6180512;23;19944;-82
2021/06/15 19:27:38;;;;;;;;;;;23.20;68.50;;;;;;6204081;23;19920;-82
2021/06/15 19:30:32;;;;;;;;;;;23.00;68.80;;;;;;6196703;23;19939;-82